sensor_id;sensor_type;location;lat;lon;timestamp;P1;durP1;ratioP1;P2;durP2;ratioP2
27684;SDS011;46113;50.130;8.526;2024-01-07T00:01:13;15.13;;;9.90;;
27684;SDS011;46113;50.130;8.526;2024-01-07T00:03:41;16.05;;;8.85;;
27684;SDS011;46113;50.130;8.526;2024-01-07T00:06:12;15.90;;;8.93;;
27684;SDS011;46113;50.130;8.526;2024-01-07T00:08:39;14.18;;;8.15;;
27684;SDS011;46113;50.130;8.526;2024-01-07T00:11:05;21.48;;;9.27;;
27684;SDS011;46113;50.130;8.526;2024-01-07T00:13:32;16.55;;;9.90;;
27684;SDS011;46113;50.130;8.526;2024-01-07T00:15:59;19.40;;;10.70;;
27684;SDS011;46113;50.130;8.526;2024-01-07T00:18:26;13.85;;;6.75;;
27684;SDS011;46113;50.130;8.526;2024-01-07T00:20:53;10.02;;;6.60;;
27684;SDS011;46113;50.130;8.526;2024-01-07T00:23:20;11.70;;;5.40;;
27684;SDS011;46113;50.130;8.526;2024-01-07T00:25:47;5.95;;;3.60;;
27684;SDS011;46113;50.130;8.526;2024-01-07T00:28:14;4.63;;;3.13;;
27684;SDS011;46113;50.130;8.526;2024-01-07T00:30:41;3.95;;;2.83;;
27684;SDS011;46113;50.130;8.526;2024-01-07T00:33:08;2.92;;;2.15;;
27684;SDS011;46113;50.130;8.526;2024-01-07T00:35:34;3.35;;;2.00;;
27684;SDS011;46113;50.130;8.526;2024-01-07T00:38:01;1.55;;;1.35;;
27684;SDS011;46113;50.130;8.526;2024-01-07T00:40:28;4.75;;;1.77;;
27684;SDS011;46113;50.130;8.526;2024-01-07T00:42:55;1.67;;;1.50;;
27684;SDS011;46113;50.130;8.526;2024-01-07T00:45:22;2.45;;;1.50;;
27684;SDS011;46113;50.130;8.526;2024-01-07T00:47:49;2.28;;;1.67;;
27684;SDS011;46113;50.130;8.526;2024-01-07T00:50:16;1.58;;;1.10;;
27684;SDS011;46113;50.130;8.526;2024-01-07T00:52:42;1.40;;;1.30;;
27684;SDS011;46113;50.130;8.526;2024-01-07T00:55:10;2.42;;;1.33;;
27684;SDS011;46113;50.130;8.526;2024-01-07T00:57:36;1.50;;;1.23;;
27684;SDS011;46113;50.130;8.526;2024-01-07T01:00:06;1.70;;;1.40;;
27684;SDS011;46113;50.130;8.526;2024-01-07T01:02:34;1.67;;;1.27;;
27684;SDS011;46113;50.130;8.526;2024-01-07T01:05:02;2.55;;;1.58;;
27684;SDS011;46113;50.130;8.526;2024-01-07T01:07:30;2.15;;;1.73;;
27684;SDS011;46113;50.130;8.526;2024-01-07T01:09:56;3.55;;;1.95;;
27684;SDS011;46113;50.130;8.526;2024-01-07T01:12:24;2.55;;;2.28;;
27684;SDS011;46113;50.130;8.526;2024-01-07T01:14:51;3.58;;;1.67;;
27684;SDS011;46113;50.130;8.526;2024-01-07T01:17:18;4.90;;;2.08;;
27684;SDS011;46113;50.130;8.526;2024-01-07T01:19:45;2.03;;;1.75;;
27684;SDS011;46113;50.130;8.526;2024-01-07T01:22:11;3.92;;;2.10;;
27684;SDS011;46113;50.130;8.526;2024-01-07T01:24:39;3.75;;;2.35;;
27684;SDS011;46113;50.130;8.526;2024-01-07T01:27:05;8.02;;;3.47;;
27684;SDS011;46113;50.130;8.526;2024-01-07T01:29:32;7.85;;;2.78;;
27684;SDS011;46113;50.130;8.526;2024-01-07T01:31:59;5.03;;;3.28;;
27684;SDS011;46113;50.130;8.526;2024-01-07T01:34:26;5.45;;;3.90;;
27684;SDS011;46113;50.130;8.526;2024-01-07T01:36:53;7.10;;;4.00;;
27684;SDS011;46113;50.130;8.526;2024-01-07T01:39:20;5.30;;;3.22;;
27684;SDS011;46113;50.130;8.526;2024-01-07T01:41:47;4.88;;;2.90;;
27684;SDS011;46113;50.130;8.526;2024-01-07T01:44:14;5.78;;;3.10;;
27684;SDS011;46113;50.130;8.526;2024-01-07T01:46:40;7.75;;;3.88;;
27684;SDS011;46113;50.130;8.526;2024-01-07T01:49:07;8.20;;;4.05;;
27684;SDS011;46113;50.130;8.526;2024-01-07T01:51:35;7.75;;;4.53;;
27684;SDS011;46113;50.130;8.526;2024-01-07T01:54:02;9.75;;;4.63;;
27684;SDS011;46113;50.130;8.526;2024-01-07T01:56:29;9.57;;;5.40;;
27684;SDS011;46113;50.130;8.526;2024-01-07T01:58:56;11.25;;;4.65;;
27684;SDS011;46113;50.130;8.526;2024-01-07T02:01:23;10.05;;;4.75;;
27684;SDS011;46113;50.130;8.526;2024-01-07T02:03:52;8.00;;;4.95;;
27684;SDS011;46113;50.130;8.526;2024-01-07T02:06:20;10.00;;;6.28;;
27684;SDS011;46113;50.130;8.526;2024-01-07T02:08:47;17.92;;;7.50;;
27684;SDS011;46113;50.130;8.526;2024-01-07T02:11:15;16.38;;;7.70;;
27684;SDS011;46113;50.130;8.526;2024-01-07T02:13:46;14.07;;;7.93;;
27684;SDS011;46113;50.130;8.526;2024-01-07T02:16:14;17.15;;;8.13;;
27684;SDS011;46113;50.130;8.526;2024-01-07T02:18:42;11.57;;;6.43;;
27684;SDS011;46113;50.130;8.526;2024-01-07T02:21:10;21.95;;;9.50;;
27684;SDS011;46113;50.130;8.526;2024-01-07T02:23:39;18.00;;;9.07;;
27684;SDS011;46113;50.130;8.526;2024-01-07T02:26:06;19.77;;;8.85;;
27684;SDS011;46113;50.130;8.526;2024-01-07T02:28:33;17.58;;;8.40;;
27684;SDS011;46113;50.130;8.526;2024-01-07T02:31:00;18.73;;;10.80;;
27684;SDS011;46113;50.130;8.526;2024-01-07T02:33:27;18.13;;;10.43;;
27684;SDS011;46113;50.130;8.526;2024-01-07T02:35:55;20.15;;;10.93;;
27684;SDS011;46113;50.130;8.526;2024-01-07T02:38:22;19.70;;;10.65;;
27684;SDS011;46113;50.130;8.526;2024-01-07T02:40:49;22.65;;;10.85;;
27684;SDS011;46113;50.130;8.526;2024-01-07T02:43:16;19.98;;;11.20;;
27684;SDS011;46113;50.130;8.526;2024-01-07T02:45:43;19.63;;;11.40;;
27684;SDS011;46113;50.130;8.526;2024-01-07T02:48:09;19.92;;;11.10;;
27684;SDS011;46113;50.130;8.526;2024-01-07T02:50:36;20.10;;;10.88;;
27684;SDS011;46113;50.130;8.526;2024-01-07T02:53:03;18.58;;;9.75;;
27684;SDS011;46113;50.130;8.526;2024-01-07T02:55:30;19.15;;;10.27;;
27684;SDS011;46113;50.130;8.526;2024-01-07T02:57:57;17.52;;;10.98;;
27684;SDS011;46113;50.130;8.526;2024-01-07T03:00:24;18.45;;;10.23;;
27684;SDS011;46113;50.130;8.526;2024-01-07T03:02:50;17.30;;;10.27;;
27684;SDS011;46113;50.130;8.526;2024-01-07T03:05:17;18.80;;;10.38;;
27684;SDS011;46113;50.130;8.526;2024-01-07T03:07:44;19.73;;;10.63;;
27684;SDS011;46113;50.130;8.526;2024-01-07T03:10:11;16.20;;;10.38;;
27684;SDS011;46113;50.130;8.526;2024-01-07T03:12:38;22.13;;;11.15;;
27684;SDS011;46113;50.130;8.526;2024-01-07T03:15:05;16.13;;;9.48;;
27684;SDS011;46113;50.130;8.526;2024-01-07T03:17:33;17.90;;;10.32;;
27684;SDS011;46113;50.130;8.526;2024-01-07T03:20:00;16.73;;;9.48;;
27684;SDS011;46113;50.130;8.526;2024-01-07T03:22:27;19.52;;;10.60;;
27684;SDS011;46113;50.130;8.526;2024-01-07T03:24:54;17.67;;;10.07;;
27684;SDS011;46113;50.130;8.526;2024-01-07T03:27:21;17.45;;;10.30;;
27684;SDS011;46113;50.130;8.526;2024-01-07T03:29:47;16.40;;;9.30;;
27684;SDS011;46113;50.130;8.526;2024-01-07T03:32:14;17.65;;;10.05;;
27684;SDS011;46113;50.130;8.526;2024-01-07T03:34:41;18.27;;;10.20;;
27684;SDS011;46113;50.130;8.526;2024-01-07T03:37:08;17.23;;;9.73;;
27684;SDS011;46113;50.130;8.526;2024-01-07T03:39:34;16.20;;;9.13;;
27684;SDS011;46113;50.130;8.526;2024-01-07T03:42:02;15.00;;;8.65;;
27684;SDS011;46113;50.130;8.526;2024-01-07T03:44:28;19.00;;;10.25;;
27684;SDS011;46113;50.130;8.526;2024-01-07T03:46:55;15.90;;;9.07;;
27684;SDS011;46113;50.130;8.526;2024-01-07T03:49:22;13.45;;;8.38;;
27684;SDS011;46113;50.130;8.526;2024-01-07T03:51:49;16.75;;;9.80;;
27684;SDS011;46113;50.130;8.526;2024-01-07T03:54:16;17.77;;;9.75;;
27684;SDS011;46113;50.130;8.526;2024-01-07T03:56:43;16.17;;;8.93;;
27684;SDS011;46113;50.130;8.526;2024-01-07T03:59:09;13.15;;;8.98;;
27684;SDS011;46113;50.130;8.526;2024-01-07T04:01:36;22.33;;;8.93;;
27684;SDS011;46113;50.130;8.526;2024-01-07T04:04:03;15.50;;;8.85;;
27684;SDS011;46113;50.130;8.526;2024-01-07T04:06:30;14.32;;;7.78;;
27684;SDS011;46113;50.130;8.526;2024-01-07T04:08:57;15.85;;;8.70;;
27684;SDS011;46113;50.130;8.526;2024-01-07T04:11:23;14.73;;;8.25;;
27684;SDS011;46113;50.130;8.526;2024-01-07T04:13:50;13.30;;;8.32;;
27684;SDS011;46113;50.130;8.526;2024-01-07T04:16:20;14.15;;;7.25;;
27684;SDS011;46113;50.130;8.526;2024-01-07T04:18:48;13.38;;;8.10;;
27684;SDS011;46113;50.130;8.526;2024-01-07T04:21:19;12.85;;;7.97;;
27684;SDS011;46113;50.130;8.526;2024-01-07T04:23:47;14.13;;;7.90;;
27684;SDS011;46113;50.130;8.526;2024-01-07T04:26:13;14.35;;;7.05;;
27684;SDS011;46113;50.130;8.526;2024-01-07T04:28:40;11.88;;;6.78;;
27684;SDS011;46113;50.130;8.526;2024-01-07T04:31:08;11.98;;;6.30;;
27684;SDS011;46113;50.130;8.526;2024-01-07T04:33:35;10.20;;;6.82;;
27684;SDS011;46113;50.130;8.526;2024-01-07T04:36:03;11.10;;;6.22;;
27684;SDS011;46113;50.130;8.526;2024-01-07T04:38:32;10.95;;;6.57;;
27684;SDS011;46113;50.130;8.526;2024-01-07T04:40:59;11.43;;;7.20;;
27684;SDS011;46113;50.130;8.526;2024-01-07T04:43:25;11.65;;;6.07;;
27684;SDS011;46113;50.130;8.526;2024-01-07T04:45:52;14.93;;;8.15;;
27684;SDS011;46113;50.130;8.526;2024-01-07T04:48:19;14.02;;;7.55;;
27684;SDS011;46113;50.130;8.526;2024-01-07T04:50:46;17.58;;;7.88;;
27684;SDS011;46113;50.130;8.526;2024-01-07T04:53:13;12.65;;;6.90;;
27684;SDS011;46113;50.130;8.526;2024-01-07T04:55:39;9.73;;;6.30;;
27684;SDS011;46113;50.130;8.526;2024-01-07T04:58:06;10.98;;;6.78;;
27684;SDS011;46113;50.130;8.526;2024-01-07T05:00:33;10.77;;;6.13;;
27684;SDS011;46113;50.130;8.526;2024-01-07T05:03:00;13.27;;;6.50;;
27684;SDS011;46113;50.130;8.526;2024-01-07T05:05:27;11.63;;;6.80;;
27684;SDS011;46113;50.130;8.526;2024-01-07T05:07:54;15.20;;;6.65;;
27684;SDS011;46113;50.130;8.526;2024-01-07T05:10:21;11.45;;;5.75;;
27684;SDS011;46113;50.130;8.526;2024-01-07T05:12:48;9.77;;;6.28;;
27684;SDS011;46113;50.130;8.526;2024-01-07T05:15:15;9.95;;;6.47;;
27684;SDS011;46113;50.130;8.526;2024-01-07T05:17:42;10.93;;;6.53;;
27684;SDS011;46113;50.130;8.526;2024-01-07T05:20:09;9.85;;;6.22;;
27684;SDS011;46113;50.130;8.526;2024-01-07T05:22:38;10.07;;;6.18;;
27684;SDS011;46113;50.130;8.526;2024-01-07T05:25:09;14.93;;;5.85;;
27684;SDS011;46113;50.130;8.526;2024-01-07T05:27:37;9.32;;;5.03;;
27684;SDS011;46113;50.130;8.526;2024-01-07T05:30:06;11.30;;;6.00;;
27684;SDS011;46113;50.130;8.526;2024-01-07T05:32:34;11.23;;;5.72;;
27684;SDS011;46113;50.130;8.526;2024-01-07T05:35:01;8.45;;;4.93;;
27684;SDS011;46113;50.130;8.526;2024-01-07T05:37:28;8.40;;;4.63;;
27684;SDS011;46113;50.130;8.526;2024-01-07T05:39:56;9.20;;;5.07;;
27684;SDS011;46113;50.130;8.526;2024-01-07T05:42:22;8.48;;;5.30;;
27684;SDS011;46113;50.130;8.526;2024-01-07T05:44:50;10.13;;;5.32;;
27684;SDS011;46113;50.130;8.526;2024-01-07T05:47:18;8.82;;;5.43;;
27684;SDS011;46113;50.130;8.526;2024-01-07T05:49:45;8.98;;;4.65;;
27684;SDS011;46113;50.130;8.526;2024-01-07T05:52:12;7.88;;;5.55;;
27684;SDS011;46113;50.130;8.526;2024-01-07T05:54:39;8.23;;;5.32;;
27684;SDS011;46113;50.130;8.526;2024-01-07T05:57:06;11.40;;;5.57;;
27684;SDS011;46113;50.130;8.526;2024-01-07T05:59:33;8.88;;;5.13;;
27684;SDS011;46113;50.130;8.526;2024-01-07T06:02:00;13.00;;;5.85;;
27684;SDS011;46113;50.130;8.526;2024-01-07T06:04:27;13.00;;;6.18;;
27684;SDS011;46113;50.130;8.526;2024-01-07T06:06:54;10.35;;;6.40;;
27684;SDS011;46113;50.130;8.526;2024-01-07T06:09:21;11.70;;;6.30;;
27684;SDS011;46113;50.130;8.526;2024-01-07T06:11:48;11.00;;;5.60;;
27684;SDS011;46113;50.130;8.526;2024-01-07T06:14:15;9.88;;;6.18;;
27684;SDS011;46113;50.130;8.526;2024-01-07T06:16:43;11.35;;;5.82;;
27684;SDS011;46113;50.130;8.526;2024-01-07T06:19:09;13.32;;;6.13;;
27684;SDS011;46113;50.130;8.526;2024-01-07T06:21:37;11.57;;;6.03;;
27684;SDS011;46113;50.130;8.526;2024-01-07T06:24:04;13.80;;;7.22;;
27684;SDS011;46113;50.130;8.526;2024-01-07T06:26:31;11.82;;;6.20;;
27684;SDS011;46113;50.130;8.526;2024-01-07T06:28:58;9.88;;;5.90;;
27684;SDS011;46113;50.130;8.526;2024-01-07T06:31:27;11.38;;;6.20;;
27684;SDS011;46113;50.130;8.526;2024-01-07T06:34:02;17.20;;;7.13;;
27684;SDS011;46113;50.130;8.526;2024-01-07T06:36:35;10.82;;;7.25;;
27684;SDS011;46113;50.130;8.526;2024-01-07T06:39:02;13.45;;;6.82;;
27684;SDS011;46113;50.130;8.526;2024-01-07T06:41:31;12.50;;;7.53;;
27684;SDS011;46113;50.130;8.526;2024-01-07T06:44:06;12.35;;;7.28;;
27684;SDS011;46113;50.130;8.526;2024-01-07T06:46:32;10.10;;;6.43;;
27684;SDS011;46113;50.130;8.526;2024-01-07T06:49:10;10.88;;;6.93;;
27684;SDS011;46113;50.130;8.526;2024-01-07T06:51:41;14.13;;;6.55;;
27684;SDS011;46113;50.130;8.526;2024-01-07T06:54:12;11.55;;;7.07;;
27684;SDS011;46113;50.130;8.526;2024-01-07T06:59:21;11.05;;;6.63;;
27684;SDS011;46113;50.130;8.526;2024-01-07T07:01:57;9.90;;;5.97;;
27684;SDS011;46113;50.130;8.526;2024-01-07T07:04:32;10.93;;;6.63;;
27684;SDS011;46113;50.130;8.526;2024-01-07T07:07:00;7.05;;;5.25;;
27684;SDS011;46113;50.130;8.526;2024-01-07T07:09:39;11.77;;;6.00;;
27684;SDS011;46113;50.130;8.526;2024-01-07T07:12:21;8.88;;;5.25;;
27684;SDS011;46113;50.130;8.526;2024-01-07T07:15:37;8.02;;;5.72;;
27684;SDS011;46113;50.130;8.526;2024-01-07T07:18:09;8.80;;;4.82;;
27684;SDS011;46113;50.130;8.526;2024-01-07T07:20:46;9.25;;;5.50;;
27684;SDS011;46113;50.130;8.526;2024-01-07T07:23:19;6.82;;;4.93;;
27684;SDS011;46113;50.130;8.526;2024-01-07T07:25:51;8.93;;;5.57;;
27684;SDS011;46113;50.130;8.526;2024-01-07T07:28:22;12.02;;;7.03;;
27684;SDS011;46113;50.130;8.526;2024-01-07T07:30:49;7.85;;;4.95;;
27684;SDS011;46113;50.130;8.526;2024-01-07T07:33:18;5.55;;;4.25;;
27684;SDS011;46113;50.130;8.526;2024-01-07T07:35:50;9.57;;;5.40;;
27684;SDS011;46113;50.130;8.526;2024-01-07T07:38:17;9.45;;;5.00;;
27684;SDS011;46113;50.130;8.526;2024-01-07T07:40:48;6.45;;;4.53;;
27684;SDS011;46113;50.130;8.526;2024-01-07T07:43:33;7.75;;;4.90;;
27684;SDS011;46113;50.130;8.526;2024-01-07T07:46:14;9.15;;;5.95;;
27684;SDS011;46113;50.130;8.526;2024-01-07T07:48:45;7.30;;;4.50;;
27684;SDS011;46113;50.130;8.526;2024-01-07T07:51:15;5.63;;;3.78;;
27684;SDS011;46113;50.130;8.526;2024-01-07T07:53:52;7.72;;;4.38;;
27684;SDS011;46113;50.130;8.526;2024-01-07T07:56:19;8.13;;;4.82;;
27684;SDS011;46113;50.130;8.526;2024-01-07T07:58:47;6.90;;;4.45;;
27684;SDS011;46113;50.130;8.526;2024-01-07T08:01:17;6.57;;;4.05;;
27684;SDS011;46113;50.130;8.526;2024-01-07T08:03:55;6.47;;;4.80;;
27684;SDS011;46113;50.130;8.526;2024-01-07T08:06:22;5.85;;;4.35;;
27684;SDS011;46113;50.130;8.526;2024-01-07T08:08:56;6.50;;;4.20;;
27684;SDS011;46113;50.130;8.526;2024-01-07T08:11:23;5.25;;;3.58;;
27684;SDS011;46113;50.130;8.526;2024-01-07T08:13:51;5.43;;;3.22;;
27684;SDS011;46113;50.130;8.526;2024-01-07T08:16:18;5.38;;;4.28;;
27684;SDS011;46113;50.130;8.526;2024-01-07T08:18:45;6.05;;;4.40;;
27684;SDS011;46113;50.130;8.526;2024-01-07T08:21:12;7.35;;;4.68;;
27684;SDS011;46113;50.130;8.526;2024-01-07T08:23:43;6.15;;;4.10;;
27684;SDS011;46113;50.130;8.526;2024-01-07T08:26:10;4.65;;;3.40;;
27684;SDS011;46113;50.130;8.526;2024-01-07T08:28:46;6.88;;;4.32;;
27684;SDS011;46113;50.130;8.526;2024-01-07T08:31:18;5.30;;;3.38;;
27684;SDS011;46113;50.130;8.526;2024-01-07T08:34:00;7.97;;;5.03;;
27684;SDS011;46113;50.130;8.526;2024-01-07T08:36:41;7.05;;;4.57;;
27684;SDS011;46113;50.130;8.526;2024-01-07T08:39:11;8.57;;;3.85;;
27684;SDS011;46113;50.130;8.526;2024-01-07T08:45:43;5.80;;;4.28;;
27684;SDS011;46113;50.130;8.526;2024-01-07T08:48:20;7.25;;;4.93;;
27684;SDS011;46113;50.130;8.526;2024-01-07T08:51:21;8.43;;;5.22;;
27684;SDS011;46113;50.130;8.526;2024-01-07T08:57:58;6.82;;;4.50;;
27684;SDS011;46113;50.130;8.526;2024-01-07T09:00:42;6.68;;;5.22;;
27684;SDS011;46113;50.130;8.526;2024-01-07T09:03:21;6.45;;;4.32;;
27684;SDS011;46113;50.130;8.526;2024-01-07T09:05:56;7.07;;;4.75;;
27684;SDS011;46113;50.130;8.526;2024-01-07T09:08:35;8.35;;;5.32;;
27684;SDS011;46113;50.130;8.526;2024-01-07T09:11:09;6.78;;;4.75;;
27684;SDS011;46113;50.130;8.526;2024-01-07T09:13:53;7.95;;;5.13;;
27684;SDS011;46113;50.130;8.526;2024-01-07T09:19:42;6.55;;;5.10;;
27684;SDS011;46113;50.130;8.526;2024-01-07T09:22:18;6.85;;;4.50;;
27684;SDS011;46113;50.130;8.526;2024-01-07T09:24:45;6.68;;;4.70;;
27684;SDS011;46113;50.130;8.526;2024-01-07T09:27:11;7.47;;;4.70;;
27684;SDS011;46113;50.130;8.526;2024-01-07T09:29:38;8.57;;;4.43;;
27684;SDS011;46113;50.130;8.526;2024-01-07T09:32:06;8.32;;;5.05;;
27684;SDS011;46113;50.130;8.526;2024-01-07T09:34:33;6.85;;;4.93;;
27684;SDS011;46113;50.130;8.526;2024-01-07T09:37:11;6.65;;;4.05;;
27684;SDS011;46113;50.130;8.526;2024-01-07T09:39:47;7.13;;;4.43;;
27684;SDS011;46113;50.130;8.526;2024-01-07T09:42:41;7.85;;;4.85;;
27684;SDS011;46113;50.130;8.526;2024-01-07T09:45:45;7.05;;;4.88;;
27684;SDS011;46113;50.130;8.526;2024-01-07T09:48:23;7.85;;;4.28;;
27684;SDS011;46113;50.130;8.526;2024-01-07T09:51:03;8.63;;;4.93;;
27684;SDS011;46113;50.130;8.526;2024-01-07T09:54:22;9.68;;;4.72;;
27684;SDS011;46113;50.130;8.526;2024-01-07T09:57:01;5.85;;;3.40;;
27684;SDS011;46113;50.130;8.526;2024-01-07T09:59:36;7.93;;;4.47;;
27684;SDS011;46113;50.130;8.526;2024-01-07T10:02:06;8.63;;;5.03;;
27684;SDS011;46113;50.130;8.526;2024-01-07T10:04:45;9.15;;;4.53;;
27684;SDS011;46113;50.130;8.526;2024-01-07T10:07:23;6.55;;;4.20;;
27684;SDS011;46113;50.130;8.526;2024-01-07T10:24:36;9.15;;;4.10;;
27684;SDS011;46113;50.130;8.526;2024-01-07T10:27:15;6.57;;;3.47;;
27684;SDS011;46113;50.130;8.526;2024-01-07T10:29:52;5.47;;;3.40;;
27684;SDS011;46113;50.130;8.526;2024-01-07T10:32:40;5.25;;;3.03;;
27684;SDS011;46113;50.130;8.526;2024-01-07T10:36:02;6.13;;;3.55;;
27684;SDS011;46113;50.130;8.526;2024-01-07T10:38:44;9.60;;;4.40;;
27684;SDS011;46113;50.130;8.526;2024-01-07T10:41:17;5.55;;;3.95;;
27684;SDS011;46113;50.130;8.526;2024-01-07T10:44:05;4.60;;;3.00;;
27684;SDS011;46113;50.130;8.526;2024-01-07T10:46:48;5.30;;;3.13;;
27684;SDS011;46113;50.130;8.526;2024-01-07T10:49:24;7.00;;;3.80;;
27684;SDS011;46113;50.130;8.526;2024-01-07T10:52:07;5.45;;;3.95;;
27684;SDS011;46113;50.130;8.526;2024-01-07T10:54:41;7.72;;;3.95;;
27684;SDS011;46113;50.130;8.526;2024-01-07T10:57:51;7.25;;;3.15;;
27684;SDS011;46113;50.130;8.526;2024-01-07T11:00:53;9.38;;;5.38;;
27684;SDS011;46113;50.130;8.526;2024-01-07T11:04:15;5.70;;;3.33;;
27684;SDS011;46113;50.130;8.526;2024-01-07T11:10:17;5.93;;;3.80;;
27684;SDS011;46113;50.130;8.526;2024-01-07T11:13:10;4.95;;;3.45;;
27684;SDS011;46113;50.130;8.526;2024-01-07T11:16:01;7.07;;;3.35;;
27684;SDS011;46113;50.130;8.526;2024-01-07T11:18:39;7.70;;;4.65;;
27684;SDS011;46113;50.130;8.526;2024-01-07T11:24:08;4.38;;;3.38;;
27684;SDS011;46113;50.130;8.526;2024-01-07T11:26:41;8.05;;;3.97;;
27684;SDS011;46113;50.130;8.526;2024-01-07T11:29:35;8.00;;;4.37;;
27684;SDS011;46113;50.130;8.526;2024-01-07T11:32:05;5.35;;;3.30;;
27684;SDS011;46113;50.130;8.526;2024-01-07T11:34:42;10.15;;;4.35;;
27684;SDS011;46113;50.130;8.526;2024-01-07T11:37:19;9.05;;;3.55;;
27684;SDS011;46113;50.130;8.526;2024-01-07T11:39:53;4.70;;;3.17;;
27684;SDS011;46113;50.130;8.526;2024-01-07T11:42:22;7.22;;;3.75;;
27684;SDS011;46113;50.130;8.526;2024-01-07T11:47:21;4.72;;;2.83;;
27684;SDS011;46113;50.130;8.526;2024-01-07T11:49:56;7.60;;;3.97;;
27684;SDS011;46113;50.130;8.526;2024-01-07T11:52:38;5.90;;;3.67;;
27684;SDS011;46113;50.130;8.526;2024-01-07T11:55:05;10.05;;;4.63;;
27684;SDS011;46113;50.130;8.526;2024-01-07T11:57:33;9.07;;;4.95;;
27684;SDS011;46113;50.130;8.526;2024-01-07T12:00:00;5.72;;;3.35;;
27684;SDS011;46113;50.130;8.526;2024-01-07T12:02:39;9.00;;;4.68;;
27684;SDS011;46113;50.130;8.526;2024-01-07T12:05:06;6.40;;;3.55;;
27684;SDS011;46113;50.130;8.526;2024-01-07T12:08:01;6.03;;;3.40;;
27684;SDS011;46113;50.130;8.526;2024-01-07T12:10:54;6.80;;;3.38;;
27684;SDS011;46113;50.130;8.526;2024-01-07T12:13:37;5.93;;;3.17;;
27684;SDS011;46113;50.130;8.526;2024-01-07T12:16:32;6.80;;;3.40;;
27684;SDS011;46113;50.130;8.526;2024-01-07T12:19:12;6.18;;;3.53;;
27684;SDS011;46113;50.130;8.526;2024-01-07T12:22:03;4.78;;;3.28;;
27684;SDS011;46113;50.130;8.526;2024-01-07T12:24:39;7.97;;;3.70;;
27684;SDS011;46113;50.130;8.526;2024-01-07T12:27:35;8.38;;;4.13;;
27684;SDS011;46113;50.130;8.526;2024-01-07T12:30:05;6.65;;;4.40;;
27684;SDS011;46113;50.130;8.526;2024-01-07T12:32:42;7.15;;;3.97;;
27684;SDS011;46113;50.130;8.526;2024-01-07T12:38:25;5.68;;;2.88;;
27684;SDS011;46113;50.130;8.526;2024-01-07T12:41:01;6.25;;;3.55;;
27684;SDS011;46113;50.130;8.526;2024-01-07T12:43:36;5.93;;;3.35;;
27684;SDS011;46113;50.130;8.526;2024-01-07T12:46:10;5.57;;;3.28;;
27684;SDS011;46113;50.130;8.526;2024-01-07T12:48:38;6.18;;;3.53;;
27684;SDS011;46113;50.130;8.526;2024-01-07T12:51:12;3.83;;;2.63;;
27684;SDS011;46113;50.130;8.526;2024-01-07T12:53:41;5.93;;;3.08;;
27684;SDS011;46113;50.130;8.526;2024-01-07T12:56:13;3.75;;;2.50;;
27684;SDS011;46113;50.130;8.526;2024-01-07T12:58:43;4.40;;;3.00;;
27684;SDS011;46113;50.130;8.526;2024-01-07T13:01:11;5.45;;;2.83;;
27684;SDS011;46113;50.130;8.526;2024-01-07T13:03:38;6.78;;;3.20;;
27684;SDS011;46113;50.130;8.526;2024-01-07T13:06:10;5.47;;;3.45;;
27684;SDS011;46113;50.130;8.526;2024-01-07T13:08:40;4.45;;;2.70;;
27684;SDS011;46113;50.130;8.526;2024-01-07T13:11:07;7.15;;;2.92;;
27684;SDS011;46113;50.130;8.526;2024-01-07T13:13:35;4.15;;;2.72;;
27684;SDS011;46113;50.130;8.526;2024-01-07T13:16:02;5.47;;;2.97;;
27684;SDS011;46113;50.130;8.526;2024-01-07T13:18:30;4.10;;;2.70;;
27684;SDS011;46113;50.130;8.526;2024-01-07T13:20:57;3.97;;;2.97;;
27684;SDS011;46113;50.130;8.526;2024-01-07T13:23:24;4.18;;;3.03;;
27684;SDS011;46113;50.130;8.526;2024-01-07T13:25:53;4.72;;;2.78;;
27684;SDS011;46113;50.130;8.526;2024-01-07T13:28:22;8.70;;;3.78;;
27684;SDS011;46113;50.130;8.526;2024-01-07T13:31:04;5.65;;;2.92;;
27684;SDS011;46113;50.130;8.526;2024-01-07T13:36:48;4.18;;;2.47;;
27684;SDS011;46113;50.130;8.526;2024-01-07T13:39:37;3.40;;;2.13;;
27684;SDS011;46113;50.130;8.526;2024-01-07T13:42:12;2.15;;;1.88;;
27684;SDS011;46113;50.130;8.526;2024-01-07T13:45:11;4.00;;;2.53;;
27684;SDS011;46113;50.130;8.526;2024-01-07T13:47:52;4.80;;;2.08;;
27684;SDS011;46113;50.130;8.526;2024-01-07T13:50:44;3.42;;;2.20;;
27684;SDS011;46113;50.130;8.526;2024-01-07T13:53:12;4.90;;;1.58;;
27684;SDS011;46113;50.130;8.526;2024-01-07T13:55:43;5.22;;;2.03;;
27684;SDS011;46113;50.130;8.526;2024-01-07T13:58:14;2.00;;;1.20;;
27684;SDS011;46113;50.130;8.526;2024-01-07T14:01:18;2.75;;;1.67;;
27684;SDS011;46113;50.130;8.526;2024-01-07T14:04:05;3.50;;;2.17;;
27684;SDS011;46113;50.130;8.526;2024-01-07T14:06:55;3.25;;;1.83;;
27684;SDS011;46113;50.130;8.526;2024-01-07T14:09:53;3.00;;;1.90;;
27684;SDS011;46113;50.130;8.526;2024-01-07T14:12:39;20.23;;;3.95;;
27684;SDS011;46113;50.130;8.526;2024-01-07T14:15:37;3.08;;;1.67;;
27684;SDS011;46113;50.130;8.526;2024-01-07T14:18:09;6.10;;;2.22;;
27684;SDS011;46113;50.130;8.526;2024-01-07T14:21:00;23.65;;;5.28;;
27684;SDS011;46113;50.130;8.526;2024-01-07T14:26:57;2.60;;;1.75;;
27684;SDS011;46113;50.130;8.526;2024-01-07T14:29:45;1.80;;;1.42;;
27684;SDS011;46113;50.130;8.526;2024-01-07T14:32:22;5.10;;;2.25;;
27684;SDS011;46113;50.130;8.526;2024-01-07T14:35:04;1.65;;;1.45;;
27684;SDS011;46113;50.130;8.526;2024-01-07T14:37:36;2.17;;;1.52;;
27684;SDS011;46113;50.130;8.526;2024-01-07T14:40:08;2.20;;;1.48;;
27684;SDS011;46113;50.130;8.526;2024-01-07T14:42:48;2.58;;;1.35;;
27684;SDS011;46113;50.130;8.526;2024-01-07T14:45:48;1.25;;;1.10;;
27684;SDS011;46113;50.130;8.526;2024-01-07T14:48:24;1.85;;;1.10;;
27684;SDS011;46113;50.130;8.526;2024-01-07T14:50:51;2.20;;;1.20;;
27684;SDS011;46113;50.130;8.526;2024-01-07T14:53:18;1.75;;;1.10;;
27684;SDS011;46113;50.130;8.526;2024-01-07T14:55:51;1.38;;;0.85;;
27684;SDS011;46113;50.130;8.526;2024-01-07T14:58:26;2.58;;;1.70;;
27684;SDS011;46113;50.130;8.526;2024-01-07T15:01:04;1.67;;;1.02;;
27684;SDS011;46113;50.130;8.526;2024-01-07T15:03:34;1.55;;;1.05;;
27684;SDS011;46113;50.130;8.526;2024-01-07T15:06:07;2.55;;;1.15;;
27684;SDS011;46113;50.130;8.526;2024-01-07T15:08:40;1.92;;;1.10;;
27684;SDS011;46113;50.130;8.526;2024-01-07T15:11:23;2.38;;;0.85;;
27684;SDS011;46113;50.130;8.526;2024-01-07T15:14:02;0.60;;;0.45;;
27684;SDS011;46113;50.130;8.526;2024-01-07T15:16:36;2.63;;;0.80;;
27684;SDS011;46113;50.130;8.526;2024-01-07T15:19:03;0.80;;;0.70;;
27684;SDS011;46113;50.130;8.526;2024-01-07T15:21:30;5.53;;;0.93;;
27684;SDS011;46113;50.130;8.526;2024-01-07T15:23:57;0.77;;;0.77;;
27684;SDS011;46113;50.130;8.526;2024-01-07T15:26:24;0.73;;;0.60;;
27684;SDS011;46113;50.130;8.526;2024-01-07T15:29:01;1.05;;;0.77;;
27684;SDS011;46113;50.130;8.526;2024-01-07T15:31:40;1.02;;;0.68;;
27684;SDS011;46113;50.130;8.526;2024-01-07T15:34:12;0.88;;;0.80;;
27684;SDS011;46113;50.130;8.526;2024-01-07T15:36:45;3.33;;;1.45;;
27684;SDS011;46113;50.130;8.526;2024-01-07T15:39:24;0.77;;;0.77;;
27684;SDS011;46113;50.130;8.526;2024-01-07T15:41:58;1.35;;;0.95;;
27684;SDS011;46113;50.130;8.526;2024-01-07T15:44:30;1.42;;;1.05;;
27684;SDS011;46113;50.130;8.526;2024-01-07T15:47:02;1.77;;;0.95;;
27684;SDS011;46113;50.130;8.526;2024-01-07T15:49:30;1.00;;;0.90;;
27684;SDS011;46113;50.130;8.526;2024-01-07T15:51:57;1.20;;;0.82;;
27684;SDS011;46113;50.130;8.526;2024-01-07T15:54:24;4.30;;;1.17;;
27684;SDS011;46113;50.130;8.526;2024-01-07T15:56:52;1.08;;;0.60;;
27684;SDS011;46113;50.130;8.526;2024-01-07T15:59:22;1.27;;;0.60;;
27684;SDS011;46113;50.130;8.526;2024-01-07T16:01:49;1.38;;;1.10;;